Time;durP1;ratioP1;P1;durP2;ratioP2;P2;SDS_P1;SDS_P2;PMS_P1;PMS_P2;Temp;Humidity;BMP_temperature;BMP_pressure;BME280_temperature;BME280_humidity;BME280_pressure;Samples;Min_cycle;Max_cycle;Signal;HPM_P1;HPM_P2
2023/09/05 00:02:08;;;;;;;2.00;2.00;;;23.00;73.20;;;;;;5059939;28;43463;-76
2023/09/05 00:04:37;;;;;;;1.50;1.50;;;23.00;73.20;;;;;;5067496;28;44057;-76
2023/09/05 00:07:05;;;;;;;1.70;1.70;;;22.90;73.30;;;;;;5065287;28;44123;-76
2023/09/05 00:09:33;;;;;;;1.70;1.70;;;22.90;74.50;;;;;;5066697;28;43360;-78
2023/09/05 00:12:02;;;;;;;1.70;1.70;;;22.90;73.80;;;;;;5067075;28;43474;-76
2023/09/05 00:14:30;;;;;;;1.70;1.70;;;22.90;73.80;;;;;;5062681;28;43835;-77
2023/09/05 00:16:59;;;;;;;2.00;2.00;;;22.90;73.70;;;;;;5061006;28;44738;-77
2023/09/05 00:19:27;;;;;;;2.00;2.00;;;22.80;73.80;;;;;;5059667;28;43588;-77
2023/09/05 00:21:55;;;;;;;1.73;1.73;;;22.80;74.10;;;;;;5068622;28;43472;-77
2023/09/05 00:24:27;;;;;;;1.60;1.60;;;22.80;73.80;;;;;;5059114;28;45426;-77
2023/09/05 00:26:55;;;;;;;1.80;1.80;;;23.00;73.50;;;;;;5068142;28;43413;-77
2023/09/05 00:29:24;;;;;;;1.60;1.60;;;23.10;73.00;;;;;;5063028;28;43519;-77
2023/09/05 00:31:53;;;;;;;1.77;1.77;;;23.10;72.60;;;;;;5065487;28;43526;-77
2023/09/05 00:34:24;;;;;;;1.70;1.70;;;23.20;72.70;;;;;;5065361;28;45454;-77
2023/09/05 00:36:52;;;;;;;1.70;1.70;;;23.10;72.70;;;;;;5058877;28;44451;-77
2023/09/05 00:39:20;;;;;;;1.70;1.70;;;23.10;73.00;;;;;;5060175;28;43960;-76
2023/09/05 00:41:48;;;;;;;1.67;1.67;;;23.00;73.20;;;;;;5062554;28;43957;-77
2023/09/05 00:44:17;;;;;;;1.70;1.70;;;23.00;73.30;;;;;;5067680;28;43778;-77
2023/09/05 00:46:46;;;;;;;1.70;1.70;;;23.00;73.40;;;;;;5061372;28;44711;-78
2023/09/05 00:49:15;;;;;;;1.67;1.67;;;22.90;73.40;;;;;;5047770;28;43454;-76
2023/09/05 00:51:50;;;;;;;1.70;1.70;;;22.90;73.80;;;;;;5060137;28;43478;-77
2023/09/05 00:54:19;;;;;;;1.90;1.90;;;22.90;73.80;;;;;;5063301;28;43930;-75
2023/09/05 00:56:47;;;;;;;1.80;1.70;;;22.90;73.80;;;;;;5060321;28;44651;-77
2023/09/05 00:59:15;;;;;;;1.50;1.50;;;22.80;73.70;;;;;;5063101;28;43429;-77
2023/09/05 01:01:43;;;;;;;1.63;1.63;;;22.80;73.80;;;;;;5066637;28;43559;-74
2023/09/05 01:04:13;;;;;;;1.70;1.70;;;22.80;74.10;;;;;;5055246;22;45679;-78
2023/09/05 01:06:49;;;;;;;1.67;1.67;;;22.80;74.00;;;;;;5070158;28;44668;-78
2023/09/05 01:09:21;;;;;;;1.90;1.90;;;22.80;73.90;;;;;;5040010;28;44111;-78
2023/09/05 01:11:49;;;;;;;1.73;1.73;;;22.80;74.00;;;;;;5043736;28;43693;-78
2023/09/05 01:14:18;;;;;;;1.90;1.90;;;22.80;74.30;;;;;;5044757;28;45764;-78
2023/09/05 01:16:46;;;;;;;1.70;1.70;;;22.80;74.10;;;;;;5061931;28;44769;-78
2023/09/05 01:19:16;;;;;;;1.80;1.80;;;22.90;73.80;;;;;;5045347;28;43812;-79
2023/09/05 01:21:56;;;;;;;1.60;1.60;;;23.00;73.30;;;;;;5043449;28;43472;-78
2023/09/05 01:24:26;;;;;;;1.80;1.80;;;23.10;72.90;;;;;;5041322;28;43715;-77
2023/09/05 01:26:54;;;;;;;1.93;1.93;;;23.20;72.50;;;;;;5057458;28;44724;-77
2023/09/05 01:29:29;;;;;;;1.60;1.60;;;23.20;72.50;;;;;;5045003;28;43382;-78
2023/09/05 01:31:59;;;;;;;1.90;1.90;;;23.10;72.50;;;;;;5043681;28;43429;-79
2023/09/05 01:34:29;;;;;;;1.80;1.80;;;23.10;72.90;;;;;;5044424;28;45894;-79
2023/09/05 01:36:57;;;;;;;1.97;1.87;;;23.00;73.00;;;;;;5044334;28;45084;-77
2023/09/05 01:39:27;;;;;;;1.80;1.80;;;23.00;73.10;;;;;;5044863;28;43995;-79
2023/09/05 01:41:57;;;;;;;1.80;1.80;;;23.00;73.20;;;;;;5040318;28;43580;-77
2023/09/05 01:44:25;;;;;;;1.70;1.70;;;22.90;73.30;;;;;;5044804;28;46184;-79
2023/09/05 01:46:53;;;;;;;1.67;1.67;;;22.90;73.70;;;;;;5042475;28;44824;-79
2023/09/05 01:49:21;;;;;;;1.67;1.67;;;22.90;73.80;;;;;;5069280;28;43482;-78
2023/09/05 01:51:49;;;;;;;1.77;1.77;;;22.90;73.60;;;;;;5040640;28;43780;-78
2023/09/05 01:54:18;;;;;;;1.80;1.80;;;22.80;73.60;;;;;;5038819;28;45699;-77
2023/09/05 01:56:48;;;;;;;1.77;1.77;;;22.80;74.10;;;;;;5044202;28;43393;-78
2023/09/05 01:59:19;;;;;;;1.80;1.80;;;22.80;73.90;;;;;;5041984;28;43453;-78
2023/09/05 02:01:47;;;;;;;1.63;1.63;;;22.90;73.70;;;;;;5055936;28;43602;-80
2023/09/05 02:04:16;;;;;;;1.77;1.77;;;23.00;73.20;;;;;;5037020;28;45765;-77
2023/09/05 02:06:44;;;;;;;1.80;1.80;;;23.10;72.80;;;;;;5026984;28;45222;-79
2023/09/05 02:09:12;;;;;;;1.80;1.80;;;23.20;72.70;;;;;;5028810;28;43421;-79
2023/09/05 02:11:40;;;;;;;1.90;1.90;;;23.10;72.70;;;;;;5029438;28;43475;-79
2023/09/05 02:14:10;;;;;;;1.80;1.80;;;23.10;72.80;;;;;;5032998;28;45462;-78
2023/09/05 02:16:38;;;;;;;1.53;1.53;;;23.00;73.20;;;;;;5033517;28;43445;-78
2023/09/05 02:19:06;;;;;;;1.73;1.73;;;23.00;73.30;;;;;;5028836;28;43395;-79
2023/09/05 02:21:34;;;;;;;1.67;1.67;;;22.90;73.20;;;;;;5032296;28;43895;-78
2023/09/05 02:24:02;;;;;;;1.80;1.80;;;22.90;73.30;;;;;;5029590;28;45806;-78
2023/09/05 02:26:30;;;;;;;1.87;1.87;;;22.90;73.60;;;;;;5034005;28;44648;-79
2023/09/05 02:28:58;;;;;;;1.53;1.53;;;22.80;73.70;;;;;;5036616;28;43467;-79
2023/09/05 02:31:28;;;;;;;1.70;1.70;;;22.80;73.70;;;;;;5028749;28;43756;-79
2023/09/05 02:33:57;;;;;;;1.60;1.60;;;22.80;73.70;;;;;;5029159;28;45831;-78
2023/09/05 02:36:25;;;;;;;1.87;1.87;;;22.80;73.70;;;;;;5037075;28;44382;-77
2023/09/05 02:38:53;;;;;;;1.97;1.97;;;22.70;73.90;;;;;;5029193;28;43514;-74
2023/09/05 02:41:21;;;;;;;1.90;1.90;;;22.80;74.00;;;;;;5028930;28;44041;-77
2023/09/05 02:43:50;;;;;;;1.60;1.60;;;22.80;73.70;;;;;;5050963;28;45697;-75
2023/09/05 02:46:20;;;;;;;1.90;1.90;;;23.00;73.40;;;;;;5037691;28;44396;-76
2023/09/05 02:48:49;;;;;;;1.80;1.80;;;23.10;72.90;;;;;;5030348;28;43491;-75
2023/09/05 02:51:17;;;;;;;1.87;1.87;;;23.10;72.60;;;;;;5038159;28;43508;-77
2023/09/05 02:53:45;;;;;;;1.60;1.60;;;23.10;72.70;;;;;;5034240;28;46354;-77
2023/09/05 02:56:14;;;;;;;1.80;1.80;;;23.00;72.70;;;;;;5029471;28;43450;-75
2023/09/05 02:58:42;;;;;;;1.90;1.90;;;22.90;73.10;;;;;;5033460;28;43337;-77
2023/09/05 03:01:11;;;;;;;1.80;1.80;;;22.90;73.20;;;;;;5035717;28;43455;-75
2023/09/05 03:03:39;;;;;;;1.60;1.60;;;22.90;73.30;;;;;;5031296;28;45781;-77
2023/09/05 03:06:10;;;;;;;1.80;1.80;;;22.90;73.30;;;;;;5027934;28;43467;-77
2023/09/05 03:08:39;;;;;;;1.80;1.70;;;22.80;73.60;;;;;;5026852;28;43458;-76
2023/09/05 03:11:08;;;;;;;1.80;1.80;;;22.80;73.60;;;;;;5040144;28;43579;-75
2023/09/05 03:13:36;;;;;;;1.90;1.90;;;22.80;73.70;;;;;;5033725;28;46151;-77
2023/09/05 03:16:05;;;;;;;1.80;1.80;;;22.80;73.60;;;;;;5033216;28;45058;-77
2023/09/05 03:18:35;;;;;;;2.20;2.10;;;22.80;73.70;;;;;;5029409;28;43293;-76
2023/09/05 03:21:03;;;;;;;1.67;1.67;;;22.70;74.00;;;;;;5028314;28;43487;-76
2023/09/05 03:23:33;;;;;;;1.60;1.60;;;22.80;73.90;;;;;;5033684;28;43817;-76
2023/09/05 03:26:01;;;;;;;1.60;1.60;;;22.90;73.50;;;;;;5033865;28;44778;-77
2023/09/05 03:28:39;;;;;;;1.80;1.80;;;23.00;73.00;;;;;;5032018;28;43468;-76
2023/09/05 03:31:09;;;;;;;1.83;1.83;;;23.10;72.60;;;;;;5027644;28;43453;-77
2023/09/05 03:33:38;;;;;;;1.70;1.70;;;23.10;72.30;;;;;;5031781;28;45337;-76
2023/09/05 03:36:07;;;;;;;1.73;1.73;;;23.10;72.50;;;;;;5026273;28;44870;-76
2023/09/05 03:38:39;;;;;;;1.83;1.83;;;23.10;72.70;;;;;;5030092;28;43433;-75
2023/09/05 03:41:09;;;;;;;1.90;1.90;;;23.00;73.00;;;;;;5034302;28;43428;-76
2023/09/05 03:43:37;;;;;;;1.77;1.77;;;23.00;73.10;;;;;;5033567;28;44108;-75
2023/09/05 03:46:05;;;;;;;1.70;1.70;;;22.90;73.10;;;;;;5032979;28;45045;-77
2023/09/05 03:48:34;;;;;;;1.80;1.70;;;22.90;73.20;;;;;;5031707;28;43397;-76
2023/09/05 03:51:02;;;;;;;1.80;1.80;;;22.90;73.60;;;;;;5030974;28;43527;-77
2023/09/05 03:53:31;;;;;;;1.83;1.83;;;22.80;73.60;;;;;;5031411;28;44039;-75
2023/09/05 03:56:00;;;;;;;1.80;1.80;;;22.80;73.50;;;;;;5026514;28;44863;-77
2023/09/05 03:58:28;;;;;;;1.67;1.67;;;22.80;73.50;;;;;;5029460;28;44067;-74
2023/09/05 04:01:02;;;;;;;1.80;1.80;;;22.80;73.60;;;;;;5033135;28;43520;-79
2023/09/05 04:03:36;;;;;;;2.20;2.10;;;22.80;73.90;;;;;;5032801;28;44117;-81
2023/09/05 04:06:05;;;;;;;2.40;2.30;;;22.80;74.50;;;;;;5031438;28;44863;-76
2023/09/05 04:08:33;;;;;;;3.50;2.53;;;22.90;73.40;;;;;;5028733;28;43462;-76
2023/09/05 04:11:03;;;;;;;3.60;2.90;;;23.00;72.90;;;;;;5027633;28;43368;-77
2023/09/05 04:13:31;;;;;;;3.03;2.80;;;23.10;72.70;;;;;;5034278;28;45926;-76
2023/09/05 04:16:03;;;;;;;3.33;3.00;;;23.10;72.50;;;;;;5029648;28;44760;-77
2023/09/05 04:18:33;;;;;;;3.80;3.03;;;23.10;72.60;;;;;;5028800;28;43434;-79
2023/09/05 04:21:08;;;;;;;4.80;3.47;;;23.00;72.80;;;;;;5050204;28;44039;-78
2023/09/05 04:23:37;;;;;;;5.13;3.40;;;23.00;73.10;;;;;;5033441;28;45481;-79
2023/09/05 04:26:06;;;;;;;4.17;3.50;;;22.90;73.10;;;;;;5034737;28;43527;-74
2023/09/05 04:28:37;;;;;;;3.87;3.37;;;22.90;73.20;;;;;;5029702;28;43384;-74
2023/09/05 04:31:06;;;;;;;5.83;3.53;;;22.90;73.20;;;;;;5030989;28;43420;-74
2023/09/05 04:33:36;;;;;;;6.57;4.10;;;22.80;73.60;;;;;;5028478;28;46088;-75
2023/09/05 04:36:07;;;;;;;5.60;4.00;;;22.80;73.60;;;;;;5025550;28;45485;-76
2023/09/05 04:38:36;;;;;;;7.00;3.90;;;22.80;73.50;;;;;;5029426;28;43379;-77
2023/09/05 04:41:05;;;;;;;4.27;3.87;;;22.80;73.50;;;;;;5025685;28;43420;-76
2023/09/05 04:43:34;;;;;;;6.87;4.73;;;22.80;73.90;;;;;;5022018;28;45876;-77
2023/09/05 04:46:03;;;;;;;8.50;4.33;;;22.80;73.90;;;;;;5026743;28;43508;-77
2023/09/05 04:48:31;;;;;;;5.87;4.73;;;22.80;73.50;;;;;;5025209;28;43531;-78
2023/09/05 04:51:01;;;;;;;5.93;4.17;;;23.00;73.10;;;;;;5029462;28;43486;-77
2023/09/05 04:53:30;;;;;;;7.60;4.30;;;23.10;72.50;;;;;;5032098;28;45437;-78
2023/09/05 04:56:00;;;;;;;7.20;4.53;;;23.10;72.00;;;;;;5030524;28;43965;-78
2023/09/05 04:58:29;;;;;;;6.97;4.63;;;23.10;72.00;;;;;;5029929;28;43407;-76
2023/09/05 05:01:02;;;;;;;6.23;4.17;;;23.10;72.30;;;;;;5030594;28;43497;-76
2023/09/05 05:03:31;;;;;;;6.37;4.30;;;23.00;72.60;;;;;;5033475;28;46125;-78
2023/09/05 05:06:00;;;;;;;8.50;4.23;;;23.00;72.80;;;;;;5027664;28;43437;-78
2023/09/05 05:08:28;;;;;;;6.23;4.47;;;23.00;73.00;;;;;;5030155;28;43334;-77
2023/09/05 05:10:56;;;;;;;5.03;4.30;;;22.90;72.90;;;;;;5029369;28;43816;-77
2023/09/05 05:13:25;;;;;;;7.00;4.20;;;22.90;73.10;;;;;;5032340;28;46286;-78
2023/09/05 05:15:53;;;;;;;5.53;4.13;;;22.80;73.30;;;;;;5034244;28;43316;-78
2023/09/05 05:18:22;;;;;;;4.67;4.13;;;22.80;73.40;;;;;;5027203;28;43418;-78
2023/09/05 05:20:53;;;;;;;5.93;4.47;;;22.80;73.40;;;;;;5029752;28;43445;-79
2023/09/05 05:23:24;;;;;;;4.83;4.10;;;22.80;74.10;;;;;;5031024;28;43997;-78
2023/09/05 05:26:01;;;;;;;4.27;3.97;;;22.80;73.60;;;;;;5031159;28;45028;-77
2023/09/05 05:28:29;;;;;;;5.37;4.03;;;22.80;73.50;;;;;;5030718;28;43392;-77
2023/09/05 05:30:58;;;;;;;5.07;4.07;;;22.80;73.10;;;;;;5036093;28;43572;-78
2023/09/05 05:33:27;;;;;;;5.17;3.97;;;22.90;72.70;;;;;;5029224;28;45929;-78
2023/09/05 05:35:58;;;;;;;4.20;3.80;;;23.00;72.10;;;;;;5029107;28;44643;-78
2023/09/05 05:38:26;;;;;;;4.10;3.80;;;23.00;71.70;;;;;;5030598;28;43457;-79
2023/09/05 05:40:54;;;;;;;4.97;4.00;;;23.00;71.80;;;;;;5027377;28;43607;-78
2023/09/05 05:43:24;;;;;;;5.23;4.33;;;23.00;72.20;;;;;;5030184;28;45754;-79
2023/09/05 05:45:54;;;;;;;4.43;3.80;;;22.90;72.30;;;;;;5028987;28;44623;-77
2023/09/05 05:48:26;;;;;;;3.60;3.30;;;22.90;72.20;;;;;;5033798;28;43413;-78
2023/09/05 05:50:57;;;;;;;4.80;4.40;;;22.80;72.20;;;;;;5032165;28;43488;-78
2023/09/05 05:53:25;;;;;;;6.37;4.20;;;22.80;72.50;;;;;;5038285;28;45331;-78
2023/09/05 05:56:08;;;;;;;4.60;4.20;;;22.80;72.60;;;;;;5031738;28;45246;-79
2023/09/05 05:58:39;;;;;;;4.37;3.83;;;22.80;72.50;;;;;;5034711;28;44042;-79
2023/09/05 06:01:08;;;;;;;3.63;3.43;;;22.70;72.40;;;;;;5031907;28;44049;-77
2023/09/05 06:03:47;;;;;;;4.67;3.57;;;22.70;72.60;;;;;;5035823;28;44036;-79
2023/09/05 06:06:27;;;;;;;4.07;3.70;;;22.70;72.70;;;;;;5030541;28;43479;-79
2023/09/05 06:08:56;;;;;;;3.93;3.60;;;22.70;72.60;;;;;;5028945;28;43405;-78
2023/09/05 06:11:24;;;;;;;3.50;3.33;;;22.70;72.40;;;;;;5036945;28;43468;-78
2023/09/05 06:13:52;;;;;;;3.80;3.50;;;22.80;72.10;;;;;;5033762;28;45209;-79
2023/09/05 06:16:20;;;;;;;4.27;3.97;;;22.90;71.60;;;;;;5028520;28;45006;-79
2023/09/05 06:18:49;;;;;;;4.00;3.70;;;23.00;71.20;;;;;;5035378;28;43465;-77
2023/09/05 06:21:17;;;;;;;3.93;3.63;;;23.00;71.10;;;;;;5035843;28;43513;-79
2023/09/05 06:23:47;;;;;;;4.03;3.70;;;23.00;71.20;;;;;;5029705;28;45686;-79
2023/09/05 06:26:16;;;;;;;4.30;3.57;;;22.90;71.40;;;;;;5034353;28;44385;-79
2023/09/05 06:28:44;;;;;;;3.57;3.37;;;22.90;72.20;;;;;;5031732;28;43760;-78
2023/09/05 06:31:12;;;;;;;3.50;3.30;;;22.80;71.40;;;;;;5031521;28;43968;-79
2023/09/05 06:33:41;;;;;;;3.47;3.37;;;22.80;71.60;;;;;;5034912;28;43559;-79
2023/09/05 06:36:11;;;;;;;3.40;3.17;;;22.80;71.90;;;;;;5032809;28;44330;-78
2023/09/05 06:38:39;;;;;;;3.70;3.40;;;22.70;71.90;;;;;;5041099;28;44014;-78
2023/09/05 06:41:09;;;;;;;3.23;3.00;;;22.70;71.70;;;;;;5033840;28;43624;-79
2023/09/05 06:43:37;;;;;;;3.73;3.50;;;22.70;71.80;;;;;;5032943;28;45892;-77
2023/09/05 06:46:06;;;;;;;3.60;3.30;;;22.70;72.00;;;;;;5032868;28;44568;-78
2023/09/05 06:48:35;;;;;;;3.60;3.40;;;22.70;72.10;;;;;;5032500;28;43414;-79
2023/09/05 06:51:03;;;;;;;3.43;3.23;;;22.60;72.00;;;;;;5031987;28;43483;-79
2023/09/05 06:53:32;;;;;;;3.27;3.17;;;22.60;71.70;;;;;;5030826;28;45928;-79
2023/09/05 06:56:00;;;;;;;3.27;3.07;;;22.70;72.40;;;;;;5022786;28;45114;-78
2023/09/05 06:58:30;;;;;;;3.30;3.17;;;22.90;71.20;;;;;;5033394;28;43519;-78
2023/09/05 07:00:58;;;;;;;3.37;3.17;;;22.90;70.70;;;;;;5036428;28;43524;-76
2023/09/05 07:03:26;;;;;;;3.30;3.10;;;23.00;70.70;;;;;;5032229;28;43764;-78
2023/09/05 07:05:56;;;;;;;3.30;3.10;;;22.90;70.80;;;;;;5044930;28;45280;-78
2023/09/05 07:08:33;;;;;;;3.60;3.40;;;22.90;71.20;;;;;;5035523;28;43517;-78
2023/09/05 07:11:01;;;;;;;3.53;3.33;;;22.80;71.10;;;;;;5034191;28;43371;-75
2023/09/05 07:13:30;;;;;;;3.57;3.37;;;22.80;71.10;;;;;;5034283;28;46080;-77
2023/09/05 07:15:59;;;;;;;3.13;2.93;;;22.70;71.30;;;;;;5028229;28;44614;-77
2023/09/05 07:18:27;;;;;;;3.30;3.10;;;22.70;71.50;;;;;;5033259;28;43352;-76
2023/09/05 07:20:56;;;;;;;3.50;3.20;;;22.70;71.70;;;;;;5030795;28;43559;-75
2023/09/05 07:23:24;;;;;;;3.10;3.00;;;22.70;71.60;;;;;;5027840;28;45437;-77
2023/09/05 07:25:52;;;;;;;2.90;2.80;;;22.70;71.50;;;;;;5030799;28;44739;-78
2023/09/05 07:28:20;;;;;;;3.27;3.17;;;22.70;71.70;;;;;;5038420;28;43521;-77
2023/09/05 07:30:52;;;;;;;3.43;3.23;;;22.60;71.80;;;;;;5029826;28;43476;-77
2023/09/05 07:33:20;;;;;;;3.33;3.10;;;22.60;71.80;;;;;;5032566;28;45316;-77
2023/09/05 07:35:48;;;;;;;2.87;2.77;;;22.60;71.50;;;;;;5031181;28;43580;-77
2023/09/05 07:38:20;;;;;;;3.00;2.90;;;22.70;71.30;;;;;;5036541;28;43376;-77
2023/09/05 07:40:49;;;;;;;2.90;2.80;;;22.80;70.90;;;;;;5028321;28;43463;-76
2023/09/05 07:43:18;;;;;;;2.80;2.70;;;22.90;71.20;;;;;;5034342;28;45246;-77
2023/09/05 07:45:47;;;;;;;2.77;2.67;;;22.90;70.30;;;;;;5029590;28;44687;-76
2023/09/05 07:48:17;;;;;;;3.00;2.90;;;22.90;70.50;;;;;;5029111;28;43866;-76
2023/09/05 07:50:46;;;;;;;3.00;2.90;;;22.80;70.70;;;;;;5035299;28;44144;-77
2023/09/05 07:53:17;;;;;;;3.10;2.90;;;22.80;71.00;;;;;;5034028;28;46368;-76
2023/09/05 07:55:45;;;;;;;2.53;2.50;;;22.80;71.90;;;;;;5031429;28;44015;-78
2023/09/05 07:58:13;;;;;;;2.67;2.57;;;22.80;71.10;;;;;;5034868;28;44125;-79
2023/09/05 08:00:42;;;;;;;2.83;2.73;;;22.70;71.20;;;;;;5032883;28;43430;-78
2023/09/05 08:03:11;;;;;;;2.70;2.60;;;22.70;71.50;;;;;;5029163;28;46177;-77
2023/09/05 08:05:40;;;;;;;2.80;2.70;;;22.60;71.30;;;;;;5024719;28;44736;-78
2023/09/05 08:08:09;;;;;;;2.70;2.60;;;22.70;71.50;;;;;;5023068;28;43459;-77
2023/09/05 08:10:37;;;;;;;2.80;2.70;;;22.60;71.50;;;;;;5030152;28;43535;-78
2023/09/05 08:13:05;;;;;;;2.67;2.57;;;22.60;71.60;;;;;;5027248;28;45896;-77
2023/09/05 08:15:34;;;;;;;2.80;2.70;;;22.60;71.70;;;;;;5035320;28;43733;-76
2023/09/05 08:18:02;;;;;;;2.93;2.83;;;22.60;71.40;;;;;;5033093;28;43450;-77
2023/09/05 08:20:30;;;;;;;2.80;2.70;;;22.70;71.30;;;;;;5056986;28;43507;-76
2023/09/05 08:23:00;;;;;;;2.60;2.50;;;22.80;70.80;;;;;;5034246;28;43624;-76
2023/09/05 08:25:28;;;;;;;2.90;2.80;;;22.90;70.40;;;;;;5035202;28;43500;-76
2023/09/05 08:27:57;;;;;;;2.80;2.70;;;22.90;70.30;;;;;;5031932;28;43447;-78
2023/09/05 08:30:27;;;;;;;2.50;2.40;;;22.90;70.40;;;;;;5026185;28;43463;-78
2023/09/05 08:32:55;;;;;;;2.80;2.70;;;22.90;70.80;;;;;;5029480;28;44007;-76
2023/09/05 08:35:24;;;;;;;2.90;2.80;;;22.80;70.90;;;;;;5026872;28;44983;-78
2023/09/05 08:37:52;;;;;;;2.47;2.43;;;22.80;71.10;;;;;;5027407;28;43422;-76
2023/09/05 08:40:23;;;;;;;2.70;2.50;;;22.80;71.10;;;;;;5027611;28;43866;-77
2023/09/05 08:42:59;;;;;;;2.60;2.60;;;22.70;71.20;;;;;;5032720;28;45637;-75
2023/09/05 08:45:27;;;;;;;2.77;2.67;;;22.70;71.40;;;;;;5028896;28;44651;-75
2023/09/05 08:47:55;;;;;;;2.70;2.60;;;22.60;71.50;;;;;;5027393;28;43394;-80
2023/09/05 08:50:27;;;;;;;2.67;2.57;;;22.70;71.70;;;;;;5035511;28;43950;-75
2023/09/05 08:52:56;;;;;;;2.70;2.60;;;22.60;71.60;;;;;;5030875;28;46257;-78
2023/09/05 08:55:26;;;;;;;2.57;2.47;;;22.60;71.70;;;;;;5029145;28;44452;-77
2023/09/05 08:57:55;;;;;;;2.80;2.70;;;22.60;71.90;;;;;;5026863;28;43426;-78
2023/09/05 09:00:24;;;;;;;2.37;2.37;;;22.60;71.90;;;;;;5029945;28;43361;-78
2023/09/05 09:02:52;;;;;;;2.40;2.30;;;22.70;71.70;;;;;;5028479;28;45770;-77
2023/09/05 09:05:21;;;;;;;2.67;2.57;;;22.80;71.50;;;;;;5033413;28;43821;-77
2023/09/05 09:07:49;;;;;;;2.57;2.50;;;22.90;71.10;;;;;;5025616;28;43375;-77
2023/09/05 09:10:19;;;;;;;2.37;2.37;;;22.90;70.90;;;;;;5028952;28;43536;-77
2023/09/05 09:12:54;;;;;;;2.43;2.33;;;22.90;71.20;;;;;;5037133;28;43924;-77
2023/09/05 09:15:24;;;;;;;2.90;2.77;;;22.80;71.20;;;;;;5028996;28;45030;-77
2023/09/05 09:17:54;;;;;;;2.53;2.43;;;22.80;72.30;;;;;;5033333;28;43449;-78
2023/09/05 09:20:23;;;;;;;2.57;2.47;;;22.70;71.60;;;;;;5034600;28;43571;-78
2023/09/05 09:22:52;;;;;;;2.37;2.27;;;22.70;71.70;;;;;;5029975;28;45620;-78
2023/09/05 09:25:21;;;;;;;2.30;2.30;;;22.70;71.80;;;;;;5031544;28;43348;-78
2023/09/05 09:27:54;;;;;;;2.53;2.43;;;22.70;71.90;;;;;;5037768;28;43463;-79
2023/09/05 09:30:23;;;;;;;2.70;2.60;;;22.60;72.10;;;;;;5029566;28;43618;-77
2023/09/05 09:32:52;;;;;;;2.50;2.40;;;22.70;72.00;;;;;;5029060;28;45924;-77
2023/09/05 09:35:21;;;;;;;2.63;2.53;;;22.70;71.70;;;;;;5034852;28;43498;-79
2023/09/05 09:37:49;;;;;;;2.33;2.33;;;22.80;71.30;;;;;;5035190;28;43415;-79
2023/09/05 09:40:17;;;;;;;2.40;2.30;;;22.90;71.20;;;;;;5029417;28;43953;-78
2023/09/05 09:42:47;;;;;;;2.27;2.17;;;23.00;72.00;;;;;;5048365;28;46016;-78
2023/09/05 09:45:19;;;;;;;2.70;2.63;;;22.90;71.40;;;;;;5036653;28;43407;-77
2023/09/05 09:47:48;;;;;;;2.70;2.60;;;22.90;71.80;;;;;;5034627;28;43410;-78
2023/09/05 09:50:17;;;;;;;2.37;2.27;;;22.80;71.60;;;;;;5031663;28;43968;-78
2023/09/05 09:52:46;;;;;;;2.40;2.30;;;22.80;71.70;;;;;;5033873;28;45355;-79
2023/09/05 09:55:14;;;;;;;2.40;2.40;;;22.80;72.00;;;;;;5028607;28;44631;-77
2023/09/05 09:57:47;;;;;;;2.43;2.43;;;22.70;72.20;;;;;;5035913;28;43503;-77
2023/09/05 10:00:18;;;;;;;2.43;2.33;;;22.70;72.30;;;;;;5045577;28;43481;-78
2023/09/05 10:02:48;;;;;;;2.50;2.40;;;22.70;72.20;;;;;;5036093;28;45748;-77
2023/09/05 10:05:16;;;;;;;2.27;2.20;;;22.70;72.40;;;;;;5034474;28;43360;-76
2023/09/05 10:07:44;;;;;;;2.27;2.27;;;22.70;72.60;;;;;;5029470;28;43454;-77
2023/09/05 10:10:15;;;;;;;2.57;2.47;;;22.70;72.70;;;;;;5022150;28;43573;-77
2023/09/05 10:12:44;;;;;;;2.40;2.40;;;22.60;72.50;;;;;;5035431;28;44668;-79
2023/09/05 10:15:12;;;;;;;2.43;2.33;;;22.70;72.40;;;;;;5029220;28;44892;-79
2023/09/05 10:17:43;;;;;;;2.30;2.30;;;22.70;72.00;;;;;;5030199;28;43301;-78
2023/09/05 10:20:19;;;;;;;2.73;2.63;;;22.90;71.80;;;;;;5034718;28;43506;-76
2023/09/05 10:22:53;;;;;;;2.00;2.00;;;23.00;71.30;;;;;;5032106;28;43876;-77
2023/09/05 10:25:21;;;;;;;2.20;2.20;;;23.00;71.10;;;;;;5035482;28;44645;-79
2023/09/05 10:27:50;;;;;;;2.07;2.07;;;23.00;71.40;;;;;;5029215;28;43462;-81
2023/09/05 10:30:19;;;;;;;2.10;2.10;;;23.00;71.80;;;;;;5025411;28;43494;-81
2023/09/05 10:32:49;;;;;;;2.17;2.17;;;22.90;71.80;;;;;;5027992;28;45406;-80
2023/09/05 10:35:19;;;;;;;2.30;2.30;;;22.80;71.60;;;;;;5025155;28;44660;-81
2023/09/05 10:37:51;;;;;;;2.30;2.20;;;22.90;72.20;;;;;;5031343;28;43450;-80
2023/09/05 10:40:22;;;;;;;2.00;2.00;;;22.80;73.00;;;;;;5025763;28;43526;-80
2023/09/05 10:42:51;;;;;;;2.20;2.10;;;22.80;72.50;;;;;;5035181;28;44016;-79
2023/09/05 10:45:30;;;;;;;2.07;2.07;;;22.80;72.30;;;;;;5028509;28;45817;-79
2023/09/05 10:48:04;;;;;;;2.20;2.20;;;22.70;72.40;;;;;;5026523;28;43457;-81
2023/09/05 10:50:34;;;;;;;2.40;2.40;;;22.80;73.50;;;;;;5033621;28;44048;-81
2023/09/05 10:53:20;;;;;;;2.10;2.10;;;22.70;72.70;;;;;;5035393;28;43935;-79
2023/09/05 10:55:50;;;;;;;2.13;2.13;;;22.70;72.70;;;;;;5030561;28;44354;-81
2023/09/05 10:58:37;;;;;;;2.00;2.00;;;22.70;72.40;;;;;;5030796;28;43802;-78
2023/09/05 11:01:39;;;;;;;1.90;1.90;;;22.80;72.10;;;;;;5025571;28;43400;-80
2023/09/05 11:04:19;;;;;;;1.90;1.90;;;22.90;71.70;;;;;;5015793;28;44259;-80
2023/09/05 11:07:00;;;;;;;2.10;2.10;;;23.00;71.70;;;;;;5026387;28;43483;-80
2023/09/05 11:09:29;;;;;;;2.27;2.17;;;23.00;72.00;;;;;;5028962;28;43389;-78
2023/09/05 11:11:58;;;;;;;2.00;2.00;;;22.90;72.20;;;;;;5032652;28;43580;-79
2023/09/05 11:14:33;;;;;;;2.03;2.03;;;22.90;72.30;;;;;;5032575;28;45952;-80
2023/09/05 11:17:01;;;;;;;2.03;2.03;;;22.90;72.10;;;;;;5030604;28;43452;-80
2023/09/05 11:19:37;;;;;;;1.87;1.87;;;22.80;72.50;;;;;;5035686;28;43901;-81
2023/09/05 11:22:12;;;;;;;2.20;2.20;;;22.80;72.70;;;;;;5033155;28;43582;-80
2023/09/05 11:24:45;;;;;;;1.90;1.90;;;22.80;72.90;;;;;;5029255;28;44360;-79
2023/09/05 11:27:13;;;;;;;2.17;2.10;;;22.70;72.60;;;;;;5029136;28;43371;-81
2023/09/05 11:29:42;;;;;;;1.90;1.80;;;22.80;72.40;;;;;;5024085;28;43433;-78
2023/09/05 11:32:12;;;;;;;2.10;2.10;;;22.90;72.20;;;;;;5032414;28;43431;-81
2023/09/05 11:34:42;;;;;;;1.90;1.90;;;23.00;71.80;;;;;;5035232;28;44048;-81
2023/09/05 11:37:15;;;;;;;2.07;2.00;;;23.00;71.60;;;;;;5025196;28;44431;-78
2023/09/05 11:39:43;;;;;;;2.00;2.00;;;23.00;72.00;;;;;;5025823;28;43449;-78
2023/09/05 11:42:23;;;;;;;2.23;2.23;;;23.00;72.30;;;;;;5040796;28;43486;-76
2023/09/05 11:44:52;;;;;;;1.87;1.87;;;22.90;72.40;;;;;;5029727;28;45703;-76
2023/09/05 11:47:22;;;;;;;1.70;1.70;;;22.90;72.30;;;;;;5034920;28;44397;-75
2023/09/05 11:49:51;;;;;;;1.83;1.83;;;22.90;72.60;;;;;;5032183;28;43415;-76
2023/09/05 11:52:20;;;;;;;2.20;2.20;;;22.80;72.70;;;;;;5032625;28;43546;-77
2023/09/05 11:54:49;;;;;;;2.00;1.90;;;22.80;72.90;;;;;;5030047;28;45958;-75
2023/09/05 11:57:18;;;;;;;2.00;1.90;;;22.70;72.70;;;;;;5031500;28;43983;-77
2023/09/05 11:59:47;;;;;;;2.23;2.13;;;22.70;72.80;;;;;;5032741;28;43482;-75
2023/09/05 12:02:17;;;;;;;1.80;1.80;;;22.80;73.00;;;;;;5026560;28;43987;-78
2023/09/05 12:04:47;;;;;;;1.90;1.90;;;22.70;73.00;;;;;;5026032;28;45305;-76
2023/09/05 12:07:15;;;;;;;2.20;1.90;;;22.70;73.10;;;;;;5023013;28;43473;-76
2023/09/05 12:09:47;;;;;;;2.07;1.97;;;22.70;73.10;;;;;;5031920;28;43495;-76
2023/09/05 12:12:18;;;;;;;2.00;2.00;;;22.70;72.80;;;;;;5033046;28;43552;-76
2023/09/05 12:14:49;;;;;;;2.07;2.07;;;22.80;72.50;;;;;;5029398;28;43804;-75
2023/09/05 12:17:20;;;;;;;2.17;2.17;;;22.90;72.00;;;;;;5022362;28;44737;-76
2023/09/05 12:19:48;;;;;;;2.00;2.00;;;23.00;71.70;;;;;;5032432;28;43716;-75
2023/09/05 12:22:29;;;;;;;1.90;1.90;;;23.00;72.00;;;;;;5028503;28;43946;-75
2023/09/05 12:25:14;;;;;;;1.80;1.80;;;23.00;72.30;;;;;;5028317;28;45613;-77
2023/09/05 12:27:48;;;;;;;1.70;1.70;;;22.90;72.40;;;;;;5028982;28;43375;-78
2023/09/05 12:30:29;;;;;;;1.90;1.90;;;22.90;72.50;;;;;;5027205;28;44069;-78
2023/09/05 12:32:58;;;;;;;1.90;1.90;;;22.80;72.70;;;;;;5036065;28;43533;-76
2023/09/05 12:35:28;;;;;;;1.70;1.70;;;22.90;72.90;;;;;;5026114;28;45658;-76
2023/09/05 12:37:58;;;;;;;1.90;1.90;;;22.80;73.00;;;;;;5030407;28;44498;-76
2023/09/05 12:40:28;;;;;;;1.97;1.97;;;22.80;73.10;;;;;;5033920;28;43433;-77
2023/09/05 12:42:56;;;;;;;2.03;1.90;;;22.80;73.10;;;;;;5024029;28;43428;-75
2023/09/05 12:45:24;;;;;;;2.10;2.10;;;22.80;73.20;;;;;;5041398;28;44942;-74
2023/09/05 12:47:52;;;;;;;1.90;1.90;;;22.80;73.30;;;;;;5045895;28;45433;-79
2023/09/05 12:50:27;;;;;;;1.70;1.70;;;22.70;73.30;;;;;;5034834;28;43402;-78
2023/09/05 12:52:55;;;;;;;2.03;1.93;;;22.70;73.30;;;;;;5021385;28;43987;-77
2023/09/05 12:55:27;;;;;;;2.20;2.20;;;22.80;73.10;;;;;;5024644;28;45094;-78
2023/09/05 12:57:57;;;;;;;1.77;1.77;;;22.90;72.70;;;;;;5034004;28;44010;-75
2023/09/05 13:00:25;;;;;;;1.90;1.90;;;23.00;72.30;;;;;;5044378;28;43429;-76
2023/09/05 13:02:53;;;;;;;1.80;1.80;;;23.10;72.20;;;;;;5030061;28;43477;-76